Jobstown, New Jersey
Current Conditions -  °F | °C
As of 7:58 AM on Monday 22 Dec 2014 (Local Time) from KWRI Reporting Station
Scattered Clouds Scattered Clouds  
Wind Chill: 26°   Ceiling: Unl
Heat Index: 31°   Visibility: 10mi
Dew Point: 28°   Wind: 5mph
Humidity: 91%   Direction: 10°N
Pressure: 30.28"   Gusts: NA
Location:  40.04°N, 74.69°W
Report Text: KWRI 221258Z AUTO 01004KT 10SM SCT026 M01/M02 A3028 RMK AO2 SLP259 T10071020 $
Loading
Personal Weather Stations






























Interactive Weather Map New forecast layout! Learn more

10-Day Weather Forecast

Advertisements
Track Severe Weather on mobile